Time,TemperatureF,DewpointF,PressureIn,WindDirection,WindDirectionDegrees,WindSpeedMPH,WindSpeedGustMPH,Humidity,HourlyPrecipIn,Conditions,Clouds,dailyrainin,SoftwareType,DateUTC
2013-03-29 00:10:00,28.9,27.2,30.06,East,90,0.0,-999.0,93,-99.99,,,0.00,Acu-Link.com,2013-03-29 06:10:00,
2013-03-29 00:25:00,28.6,27.1,30.06,ESE,112,2.7,-999.0,94,-99.99,,,0.00,Acu-Link.com,2013-03-29 06:25:00,
2013-03-29 00:41:00,29.3,27.0,30.05,SE,135,2.7,-999.0,91,-99.99,,,0.00,Acu-Link.com,2013-03-29 06:41:00,
2013-03-29 00:56:00,28.6,26.3,30.05,ESE,112,2.2,-999.0,91,-99.99,,,0.00,Acu-Link.com,2013-03-29 06:56:00,
2013-03-29 01:11:00,28.6,26.6,30.05,ESE,112,2.7,-999.0,92,-99.99,,,0.00,Acu-Link.com,2013-03-29 07:11:00,
2013-03-29 01:27:00,28.6,26.8,30.04,SE,135,3.1,-999.0,93,-99.99,,,0.00,Acu-Link.com,2013-03-29 07:27:00,
2013-03-29 01:42:00,28.6,26.6,30.04,SE,135,3.8,-999.0,92,-99.99,,,0.00,Acu-Link.com,2013-03-29 07:42:00,
2013-03-29 01:57:00,29.5,27.2,30.04,SSE,157,3.8,-999.0,91,-99.99,,,0.00,Acu-Link.com,2013-03-29 07:57:00,
2013-03-29 02:13:00,28.6,26.3,30.03,SSE,157,2.2,-999.0,91,-99.99,,,0.00,Acu-Link.com,2013-03-29 08:13:00,
2013-03-29 02:28:00,28.6,26.3,30.04,South,180,2.2,-999.0,91,-99.99,,,0.00,Acu-Link.com,2013-03-29 08:28:00,
2013-03-29 02:43:00,27.5,25.5,30.03,South,180,1.1,-999.0,92,-99.99,,,0.00,Acu-Link.com,2013-03-29 08:43:00,
2013-03-29 02:58:00,27.7,25.9,30.04,South,180,3.8,-999.0,93,-99.99,,,0.00,Acu-Link.com,2013-03-29 08:58:00,
2013-03-29 03:13:00,27.7,26.2,30.03,SSE,157,1.6,-999.0,94,-99.99,,,0.00,Acu-Link.com,2013-03-29 09:13:00,
2013-03-29 03:29:00,27.9,26.4,30.03,South,180,2.7,-999.0,94,-99.99,,,0.00,Acu-Link.com,2013-03-29 09:29:00,
2013-03-29 03:44:00,27.9,26.4,30.02,SSE,157,1.6,-999.0,94,-99.99,,,0.00,Acu-Link.com,2013-03-29 09:44:00,
2013-03-29 03:59:00,28.4,26.6,30.02,SE,135,2.2,-999.0,93,-99.99,,,0.00,Acu-Link.com,2013-03-29 09:59:00,
2013-03-29 04:14:00,27.9,26.1,30.02,SSE,157,2.7,-999.0,93,-99.99,,,0.00,Acu-Link.com,2013-03-29 10:14:00,
2013-03-29 04:30:00,28.2,26.7,30.01,South,180,3.8,-999.0,94,-99.99,,,0.00,Acu-Link.com,2013-03-29 10:30:00,
2013-03-29 04:45:00,28.2,26.7,30.01,SE,135,4.7,-999.0,94,-99.99,,,0.00,Acu-Link.com,2013-03-29 10:45:00,
2013-03-29 05:00:00,28.0,26.5,30.01,East,90,2.2,-999.0,94,-99.99,,,0.00,Acu-Link.com,2013-03-29 11:00:00,
2013-03-29 05:16:00,27.9,26.4,30.01,East,90,0.0,-999.0,94,-99.99,,,0.00,Acu-Link.com,2013-03-29 11:16:00,
2013-03-29 05:46:00,28.2,27.0,30.00,SSE,157,3.8,-999.0,95,-99.99,,,0.00,Acu-Link.com,2013-03-29 11:46:00,
2013-03-29 06:01:00,27.5,26.3,30.00,East,90,4.3,-999.0,95,-99.99,,,0.00,Acu-Link.com,2013-03-29 12:01:00,
2013-03-29 06:17:00,26.6,25.4,30.00,East,90,1.6,-999.0,95,-99.99,,,0.00,Acu-Link.com,2013-03-29 12:17:00,
2013-03-29 06:32:00,26.2,25.0,30.01,ENE,67,1.6,-999.0,95,-99.99,,,0.00,Acu-Link.com,2013-03-29 12:32:00,
2013-03-29 06:47:00,25.9,24.4,30.01,ENE,67,0.0,-999.0,94,-99.99,,,0.00,Acu-Link.com,2013-03-29 12:47:00,
2013-03-29 07:03:00,27.1,25.9,30.01,SSE,157,2.2,-999.0,95,-99.99,,,0.00,Acu-Link.com,2013-03-29 13:03:00,
2013-03-29 07:18:00,28.4,27.2,30.00,South,180,2.7,-999.0,95,-99.99,,,0.00,Acu-Link.com,2013-03-29 13:18:00,
2013-03-29 07:33:00,29.5,28.2,29.99,South,180,4.7,-999.0,95,-99.99,,,0.00,Acu-Link.com,2013-03-29 13:33:00,
2013-03-29 07:48:00,30.7,29.2,29.99,South,180,5.8,-999.0,94,-99.99,,,0.00,Acu-Link.com,2013-03-29 13:48:00,
2013-03-29 08:03:00,32.2,30.1,29.99,South,180,3.8,-999.0,92,-99.99,,,0.00,Acu-Link.com,2013-03-29 14:03:00,
2013-03-29 08:19:00,32.0,30.2,29.99,East,90,2.2,-999.0,93,-99.99,,,0.00,Acu-Link.com,2013-03-29 14:19:00,
2013-03-29 08:34:00,33.3,31.2,29.99,South,180,4.3,-999.0,92,-99.99,,,0.00,Acu-Link.com,2013-03-29 14:34:00,
2013-03-29 08:49:00,33.8,31.7,30.00,SSW,202,4.7,-999.0,92,-99.99,,,0.00,Acu-Link.com,2013-03-29 14:49:00,
2013-03-29 09:04:00,35.8,32.3,29.99,SSE,157,6.7,-999.0,87,-99.99,,,0.00,Acu-Link.com,2013-03-29 15:04:00,
2013-03-29 09:19:00,36.7,32.9,29.99,South,180,8.3,-999.0,86,-99.99,,,0.00,Acu-Link.com,2013-03-29 15:19:00,
2013-03-29 09:35:00,37.4,33.6,29.98,South,180,9.8,-999.0,86,-99.99,,,0.00,Acu-Link.com,2013-03-29 15:35:00,
2013-03-29 09:50:00,38.3,34.2,29.97,South,180,7.4,-999.0,85,-99.99,,,0.00,Acu-Link.com,2013-03-29 15:50:00,
2013-03-29 10:05:00,39.2,34.5,29.96,SSE,157,4.7,-999.0,83,-99.99,,,0.00,Acu-Link.com,2013-03-29 16:05:00,
2013-03-29 10:20:00,40.8,35.4,29.97,SSW,202,5.8,-999.0,81,-99.99,,,0.00,Acu-Link.com,2013-03-29 16:20:00,
2013-03-29 10:36:00,43.3,36.3,29.97,SE,135,7.8,-999.0,76,-99.99,,,0.00,Acu-Link.com,2013-03-29 16:36:00,
2013-03-29 10:51:00,44.2,36.5,29.96,South,180,9.8,-999.0,74,-99.99,,,0.00,Acu-Link.com,2013-03-29 16:51:00,
2013-03-29 11:06:00,46.2,37.7,29.96,ESE,112,11.4,-999.0,72,-99.99,,,0.00,Acu-Link.com,2013-03-29 17:06:00,
2013-03-29 11:22:00,47.1,37.8,29.95,SSE,157,9.8,-999.0,70,-99.99,,,0.00,Acu-Link.com,2013-03-29 17:22:00,
2013-03-29 11:37:00,46.6,37.0,29.95,South,180,6.3,-999.0,69,-99.99,,,0.00,Acu-Link.com,2013-03-29 17:37:00,
2013-03-29 11:52:00,46.8,37.1,29.95,ESE,112,12.5,-999.0,69,-99.99,,,0.00,Acu-Link.com,2013-03-29 17:52:00,
2013-03-29 12:07:00,47.3,37.3,29.95,ESE,112,8.3,-999.0,68,-99.99,,,0.00,Acu-Link.com,2013-03-29 18:07:00,
2013-03-29 12:22:00,48.4,38.3,29.95,ESE,112,12.5,-999.0,68,-99.99,,,0.00,Acu-Link.com,2013-03-29 18:22:00,
2013-03-29 12:37:00,50.2,38.9,29.93,ESE,112,15.4,-999.0,65,-99.99,,,0.00,Acu-Link.com,2013-03-29 18:37:00,
2013-03-29 12:53:00,51.4,38.9,29.92,SE,135,17.7,-999.0,62,-99.99,,,0.00,Acu-Link.com,2013-03-29 18:53:00,
2013-03-29 13:08:00,52.5,39.0,29.92,SE,135,11.9,-999.0,60,-99.99,,,0.00,Acu-Link.com,2013-03-29 19:08:00,
2013-03-29 13:23:00,52.3,37.6,29.92,SE,135,7.8,-999.0,57,-99.99,,,0.00,Acu-Link.com,2013-03-29 19:23:00,
2013-03-29 13:39:00,53.6,38.3,29.92,East,90,5.1,-999.0,56,-99.99,,,0.00,Acu-Link.com,2013-03-29 19:39:00,
2013-03-29 13:54:00,54.3,38.5,29.92,SSE,157,5.8,-999.0,55,-99.99,,,0.00,Acu-Link.com,2013-03-29 19:54:00,
2013-03-29 14:09:00,53.1,37.8,29.92,ESE,112,4.3,-999.0,56,-99.99,,,0.00,Acu-Link.com,2013-03-29 20:09:00,
2013-03-29 14:24:00,57.0,39.6,29.91,SSW,202,2.2,-999.0,52,-99.99,,,0.00,Acu-Link.com,2013-03-29 20:24:00,
2013-03-29 14:40:00,54.7,38.8,29.91,ENE,67,5.8,-999.0,55,-99.99,,,0.00,Acu-Link.com,2013-03-29 20:40:00,
2013-03-29 14:55:00,58.3,39.7,29.90,SW,225,4.3,-999.0,50,-99.99,,,0.00,Acu-Link.com,2013-03-29 20:55:00,
2013-03-29 15:10:00,58.6,39.0,29.90,SW,225,3.1,-999.0,48,-99.99,,,0.00,Acu-Link.com,2013-03-29 21:10:00,
2013-03-29 15:25:00,58.5,39.4,29.89,ESE,112,0.0,-999.0,49,-99.99,,,0.00,Acu-Link.com,2013-03-29 21:25:00,
2013-03-29 15:56:00,55.0,40.5,29.89,NNE,22,3.8,-999.0,58,-99.99,,,0.00,Acu-Link.com,2013-03-29 21:56:00,
2013-03-29 16:11:00,56.1,40.6,29.89,NE,45,11.9,-999.0,56,-99.99,,,0.00,Acu-Link.com,2013-03-29 22:11:00,
2013-03-29 16:27:00,55.6,41.0,29.90,East,90,7.8,-999.0,58,-99.99,,,0.00,Acu-Link.com,2013-03-29 22:27:00,
2013-03-29 16:42:00,55.6,40.6,29.89,North,0,5.1,-999.0,57,-99.99,,,0.00,Acu-Link.com,2013-03-29 22:42:00,
2013-03-29 16:57:00,55.4,40.9,29.90,NE,45,5.1,-999.0,58,-99.99,,,0.00,Acu-Link.com,2013-03-29 22:57:00,
2013-03-29 17:13:00,55.9,40.5,29.90,NE,45,4.7,-999.0,56,-99.99,,,0.00,Acu-Link.com,2013-03-29 23:13:00,
2013-03-29 17:28:00,54.9,39.9,29.90,NNE,22,7.8,-999.0,57,-99.99,,,0.00,Acu-Link.com,2013-03-29 23:28:00,
2013-03-29 17:43:00,53.8,39.8,29.90,ENE,67,11.0,-999.0,59,-99.99,,,0.00,Acu-Link.com,2013-03-29 23:43:00,
2013-03-29 17:58:00,49.5,40.5,29.92,North,0,6.7,-999.0,71,-99.99,,,0.00,Acu-Link.com,2013-03-29 23:58:00,
2013-03-29 18:14:00,48.4,39.8,29.92,NNE,22,11.4,-999.0,72,-99.99,,,0.00,Acu-Link.com,2013-03-30 00:14:00,
2013-03-29 18:29:00,45.5,38.7,29.93,NNE,22,6.3,-999.0,77,-99.99,,,0.00,Acu-Link.com,2013-03-30 00:29:00,
2013-03-29 18:44:00,45.0,38.5,29.93,East,90,6.3,-999.0,78,-99.99,,,0.00,Acu-Link.com,2013-03-30 00:44:00,
2013-03-29 19:00:00,43.9,37.8,29.93,NE,45,3.1,-999.0,79,-99.99,,,0.00,Acu-Link.com,2013-03-30 01:00:00,
2013-03-29 19:15:00,42.4,37.3,29.93,NE,45,2.7,-999.0,82,-99.99,,,0.00,Acu-Link.com,2013-03-30 01:15:00,
2013-03-29 19:30:00,41.5,36.8,29.93,NE,45,1.6,-999.0,83,-99.99,,,0.00,Acu-Link.com,2013-03-30 01:30:00,
2013-03-29 19:46:00,40.3,36.4,29.93,NNE,22,1.6,-999.0,86,-99.99,,,0.00,Acu-Link.com,2013-03-30 01:46:00,
2013-03-29 20:32:00,39.0,35.8,29.94,NNW,337,1.6,-999.0,88,-99.99,,,0.00,Acu-Link.com,2013-03-30 02:32:00,
2013-03-29 20:47:00,35.8,32.3,29.94,WSW,247,3.8,-999.0,87,-99.99,,,0.00,Acu-Link.com,2013-03-30 02:47:00,
2013-03-29 21:02:00,34.9,32.8,29.94,WSW,247,3.1,-999.0,92,-99.99,,,0.00,Acu-Link.com,2013-03-30 03:02:00,
2013-03-29 21:17:00,36.0,33.9,29.95,West,270,3.1,-999.0,92,-99.99,,,0.00,Acu-Link.com,2013-03-30 03:17:00,
2013-03-29 21:32:00,35.8,33.4,29.94,West,270,2.7,-999.0,91,-99.99,,,0.00,Acu-Link.com,2013-03-30 03:32:00,
2013-03-29 21:48:00,35.8,33.4,29.95,WSW,247,3.1,-999.0,91,-99.99,,,0.00,Acu-Link.com,2013-03-30 03:48:00,
2013-03-29 22:03:00,36.0,33.3,29.95,WSW,247,3.1,-999.0,90,-99.99,,,0.00,Acu-Link.com,2013-03-30 04:03:00,
2013-03-29 22:18:00,35.6,32.4,29.95,WSW,247,3.8,-999.0,88,-99.99,,,0.00,Acu-Link.com,2013-03-30 04:18:00,
2013-03-29 22:34:00,37.0,33.2,29.95,West,270,3.1,-999.0,86,-99.99,,,0.00,Acu-Link.com,2013-03-30 04:34:00,
2013-03-29 22:49:00,36.7,32.3,29.94,West,270,2.7,-999.0,84,-99.99,,,0.00,Acu-Link.com,2013-03-30 04:49:00,
2013-03-29 23:04:00,36.1,32.4,29.95,West,270,4.3,-999.0,86,-99.99,,,0.00,Acu-Link.com,2013-03-30 05:04:00,
2013-03-29 23:19:00,35.6,32.1,29.95,West,270,4.3,-999.0,87,-99.99,,,0.00,Acu-Link.com,2013-03-30 05:19:00,
2013-03-29 23:35:00,36.0,32.5,29.95,West,270,4.3,-999.0,87,-99.99,,,0.00,Acu-Link.com,2013-03-30 05:35:00,
2013-03-29 23:50:00,35.2,32.6,29.95,SW,225,6.3,-999.0,90,-99.99,,,0.00,Acu-Link.com,2013-03-30 05:50:00,